sensor_id;sensor_type;location;lat;lon;timestamp;temperature;humidity
57444;DHT22;43289;52.962;6.196;2023-07-13T05:40:25;19.10;99.90
57444;DHT22;43289;52.962;6.196;2023-07-13T05:42:51;17.30;99.90
57444;DHT22;43289;52.962;6.196;2023-07-13T05:45:17;17.20;99.90
57444;DHT22;43289;52.962;6.196;2023-07-13T05:47:42;17.30;99.90
57444;DHT22;43289;52.962;6.196;2023-07-13T05:50:09;17.40;99.90
57444;DHT22;43289;52.962;6.196;2023-07-13T05:52:35;17.50;99.90
57444;DHT22;43289;52.962;6.196;2023-07-13T05:55:20;17.50;99.90
57444;DHT22;43289;52.962;6.196;2023-07-13T05:57:46;17.70;99.90
57444;DHT22;43289;52.962;6.196;2023-07-13T06:00:12;17.80;99.90
57444;DHT22;43289;52.962;6.196;2023-07-13T06:02:38;17.90;99.90
57444;DHT22;43289;52.962;6.196;2023-07-13T06:05:04;18.00;99.90
57444;DHT22;43289;52.962;6.196;2023-07-13T06:07:30;18.10;99.90
57444;DHT22;43289;52.962;6.196;2023-07-13T06:09:56;18.20;99.90
57444;DHT22;43289;52.962;6.196;2023-07-13T06:12:22;18.20;99.90
57444;DHT22;43289;52.962;6.196;2023-07-13T06:14:47;18.30;99.90
57444;DHT22;43289;52.962;6.196;2023-07-13T06:17:13;18.40;99.90
57444;DHT22;43289;52.962;6.196;2023-07-13T06:19:39;18.50;99.90
57444;DHT22;43289;52.962;6.196;2023-07-13T06:22:05;18.60;99.90
57444;DHT22;43289;52.962;6.196;2023-07-13T06:24:30;18.70;99.90
57444;DHT22;43289;52.962;6.196;2023-07-13T06:26:56;18.80;99.90
57444;DHT22;43289;52.962;6.196;2023-07-13T06:29:22;18.80;99.90
57444;DHT22;43289;52.962;6.196;2023-07-13T06:31:47;18.90;99.90
57444;DHT22;43289;52.962;6.196;2023-07-13T06:34:13;19.10;99.90
57444;DHT22;43289;52.962;6.196;2023-07-13T06:36:39;19.20;99.90
57444;DHT22;43289;52.962;6.196;2023-07-13T06:39:06;19.30;99.90
57444;DHT22;43289;52.962;6.196;2023-07-13T06:41:32;19.50;99.90
57444;DHT22;43289;52.962;6.196;2023-07-13T06:47:22;19.90;99.90
57444;DHT22;43289;52.962;6.196;2023-07-13T06:49:48;19.90;99.90
57444;DHT22;43289;52.962;6.196;2023-07-13T06:52:13;19.60;99.90
57444;DHT22;43289;52.962;6.196;2023-07-13T06:54:39;19.40;99.90
57444;DHT22;43289;52.962;6.196;2023-07-13T06:57:05;19.30;99.90
57444;DHT22;43289;52.962;6.196;2023-07-13T06:59:30;19.10;99.90
57444;DHT22;43289;52.962;6.196;2023-07-13T07:01:56;19.00;99.90
57444;DHT22;43289;52.962;6.196;2023-07-13T07:04:22;19.00;99.90
57444;DHT22;43289;52.962;6.196;2023-07-13T07:06:47;19.10;99.90
57444;DHT22;43289;52.962;6.196;2023-07-13T07:09:13;19.30;99.90
57444;DHT22;43289;52.962;6.196;2023-07-13T07:11:40;19.40;99.90
57444;DHT22;43289;52.962;6.196;2023-07-13T07:14:05;19.60;99.90
57444;DHT22;43289;52.962;6.196;2023-07-13T07:16:32;19.60;99.90
57444;DHT22;43289;52.962;6.196;2023-07-13T07:18:58;19.60;99.90
57444;DHT22;43289;52.962;6.196;2023-07-13T07:21:23;19.50;99.90
57444;DHT22;43289;52.962;6.196;2023-07-13T07:26:41;19.50;99.90
57444;DHT22;43289;52.962;6.196;2023-07-13T07:29:07;19.50;99.90
57444;DHT22;43289;52.962;6.196;2023-07-13T07:31:32;19.50;99.90
57444;DHT22;43289;52.962;6.196;2023-07-13T07:33:58;19.60;99.90
57444;DHT22;43289;52.962;6.196;2023-07-13T07:36:23;19.70;99.90
57444;DHT22;43289;52.962;6.196;2023-07-13T07:38:49;19.90;99.90
57444;DHT22;43289;52.962;6.196;2023-07-13T07:41:15;20.10;99.90
57444;DHT22;43289;52.962;6.196;2023-07-13T07:43:41;20.10;99.90
57444;DHT22;43289;52.962;6.196;2023-07-13T07:46:06;20.30;99.90
57444;DHT22;43289;52.962;6.196;2023-07-13T07:48:32;20.30;99.90
57444;DHT22;43289;52.962;6.196;2023-07-13T07:50:58;20.10;99.90
57444;DHT22;43289;52.962;6.196;2023-07-13T07:53:23;20.10;99.90
57444;DHT22;43289;52.962;6.196;2023-07-13T07:55:49;20.00;99.90
57444;DHT22;43289;52.962;6.196;2023-07-13T07:58:15;20.00;99.90
57444;DHT22;43289;52.962;6.196;2023-07-13T08:04:22;20.10;99.90
57444;DHT22;43289;52.962;6.196;2023-07-13T08:06:47;20.10;99.90
57444;DHT22;43289;52.962;6.196;2023-07-13T08:09:13;20.00;99.90
57444;DHT22;43289;52.962;6.196;2023-07-13T08:11:39;20.00;99.90
57444;DHT22;43289;52.962;6.196;2023-07-13T08:14:04;19.90;99.90
57444;DHT22;43289;52.962;6.196;2023-07-13T08:16:30;19.90;99.90
57444;DHT22;43289;52.962;6.196;2023-07-13T08:18:58;19.90;99.90
57444;DHT22;43289;52.962;6.196;2023-07-13T08:21:23;19.90;99.90
57444;DHT22;43289;52.962;6.196;2023-07-13T08:23:49;19.90;99.90
57444;DHT22;43289;52.962;6.196;2023-07-13T08:26:15;19.90;99.90
57444;DHT22;43289;52.962;6.196;2023-07-13T08:28:41;19.90;99.90
57444;DHT22;43289;52.962;6.196;2023-07-13T08:31:07;19.80;99.90
57444;DHT22;43289;52.962;6.196;2023-07-13T08:33:34;19.70;99.90
57444;DHT22;43289;52.962;6.196;2023-07-13T08:36:00;19.60;99.90
57444;DHT22;43289;52.962;6.196;2023-07-13T08:38:26;19.50;99.90
57444;DHT22;43289;52.962;6.196;2023-07-13T08:40:55;19.60;99.90
57444;DHT22;43289;52.962;6.196;2023-07-13T08:43:32;19.70;99.90
57444;DHT22;43289;52.962;6.196;2023-07-13T08:46:16;19.90;99.90
57444;DHT22;43289;52.962;6.196;2023-07-13T08:48:58;19.90;99.90
57444;DHT22;43289;52.962;6.196;2023-07-13T08:56:45;19.80;99.90
57444;DHT22;43289;52.962;6.196;2023-07-13T08:59:15;19.90;99.90
57444;DHT22;43289;52.962;6.196;2023-07-13T09:04:26;19.90;99.90
57444;DHT22;43289;52.962;6.196;2023-07-13T09:07:11;19.90;99.90
57444;DHT22;43289;52.962;6.196;2023-07-13T09:12:28;19.70;99.90
57444;DHT22;43289;52.962;6.196;2023-07-13T09:14:58;19.70;99.90
57444;DHT22;43289;52.962;6.196;2023-07-13T09:17:34;19.70;99.90
57444;DHT22;43289;52.962;6.196;2023-07-13T09:20:10;20.00;99.90
57444;DHT22;43289;52.962;6.196;2023-07-13T09:22:39;20.40;99.90
57444;DHT22;43289;52.962;6.196;2023-07-13T09:25:24;20.90;99.90
57444;DHT22;43289;52.962;6.196;2023-07-13T09:27:53;21.30;99.90
57444;DHT22;43289;52.962;6.196;2023-07-13T09:31:01;21.50;99.90
57444;DHT22;43289;52.962;6.196;2023-07-13T09:33:29;21.80;99.90
57444;DHT22;43289;52.962;6.196;2023-07-13T09:35:58;21.60;99.90
57444;DHT22;43289;52.962;6.196;2023-07-13T09:38:27;21.50;99.90
57444;DHT22;43289;52.962;6.196;2023-07-13T09:43:25;21.00;99.90
57444;DHT22;43289;52.962;6.196;2023-07-13T09:45:55;21.20;99.90
57444;DHT22;43289;52.962;6.196;2023-07-13T09:48:21;21.50;99.90
57444;DHT22;43289;52.962;6.196;2023-07-13T09:50:47;21.30;99.90
57444;DHT22;43289;52.962;6.196;2023-07-13T09:53:17;21.20;99.90
57444;DHT22;43289;52.962;6.196;2023-07-13T09:55:45;21.00;99.90
57444;DHT22;43289;52.962;6.196;2023-07-13T10:00:41;21.00;99.90
57444;DHT22;43289;52.962;6.196;2023-07-13T10:03:20;20.90;99.90
57444;DHT22;43289;52.962;6.196;2023-07-13T10:05:50;20.60;99.90
57444;DHT22;43289;52.962;6.196;2023-07-13T10:08:26;20.40;99.90
57444;DHT22;43289;52.962;6.196;2023-07-13T10:11:14;20.10;99.90
57444;DHT22;43289;52.962;6.196;2023-07-13T10:13:52;19.60;99.90
57444;DHT22;43289;52.962;6.196;2023-07-13T10:16:21;19.00;99.90
57444;DHT22;43289;52.962;6.196;2023-07-13T10:18:49;18.60;99.90
57444;DHT22;43289;52.962;6.196;2023-07-13T10:21:21;18.30;99.90
57444;DHT22;43289;52.962;6.196;2023-07-13T10:23:51;18.10;99.90
57444;DHT22;43289;52.962;6.196;2023-07-13T10:26:26;18.00;99.90
57444;DHT22;43289;52.962;6.196;2023-07-13T10:28:59;18.00;99.90
57444;DHT22;43289;52.962;6.196;2023-07-13T10:31:26;18.10;99.90
57444;DHT22;43289;52.962;6.196;2023-07-13T10:33:52;18.30;99.90
57444;DHT22;43289;52.962;6.196;2023-07-13T10:36:30;18.80;99.90
57444;DHT22;43289;52.962;6.196;2023-07-13T10:39:02;19.40;99.90
57444;DHT22;43289;52.962;6.196;2023-07-13T10:41:31;20.10;99.90
57444;DHT22;43289;52.962;6.196;2023-07-13T10:43:59;20.70;99.90
57444;DHT22;43289;52.962;6.196;2023-07-13T10:46:27;21.30;99.90
57444;DHT22;43289;52.962;6.196;2023-07-13T10:48:59;21.80;99.90
57444;DHT22;43289;52.962;6.196;2023-07-13T10:51:26;22.10;99.90
57444;DHT22;43289;52.962;6.196;2023-07-13T10:56:45;22.10;99.90
57444;DHT22;43289;52.962;6.196;2023-07-13T10:59:16;22.10;99.90
57444;DHT22;43289;52.962;6.196;2023-07-13T11:04:22;21.50;99.90
57444;DHT22;43289;52.962;6.196;2023-07-13T11:06:53;21.30;99.90
57444;DHT22;43289;52.962;6.196;2023-07-13T11:09:38;21.60;99.90
57444;DHT22;43289;52.962;6.196;2023-07-13T11:12:09;21.60;99.90
57444;DHT22;43289;52.962;6.196;2023-07-13T11:15:00;21.70;99.90
57444;DHT22;43289;52.962;6.196;2023-07-13T11:17:38;21.90;99.90
57444;DHT22;43289;52.962;6.196;2023-07-13T11:22:47;22.50;99.90
57444;DHT22;43289;52.962;6.196;2023-07-13T11:25:33;22.50;99.90
57444;DHT22;43289;52.962;6.196;2023-07-13T11:33:15;22.50;99.90
57444;DHT22;43289;52.962;6.196;2023-07-13T11:53:22;23.50;99.90
57444;DHT22;43289;52.962;6.196;2023-07-13T12:00:43;24.00;99.90
57444;DHT22;43289;52.962;6.196;2023-07-13T12:03:11;23.90;99.90
57444;DHT22;43289;52.962;6.196;2023-07-13T12:05:57;24.00;99.90
57444;DHT22;43289;52.962;6.196;2023-07-13T12:08:23;24.00;99.90
57444;DHT22;43289;52.962;6.196;2023-07-13T12:28:45;24.20;99.90
57444;DHT22;43289;52.962;6.196;2023-07-13T12:31:37;23.80;99.90
57444;DHT22;43289;52.962;6.196;2023-07-13T12:34:11;24.10;99.90
57444;DHT22;43289;52.962;6.196;2023-07-13T12:36:40;23.80;99.90
57444;DHT22;43289;52.962;6.196;2023-07-13T12:52:14;24.10;99.90
57444;DHT22;43289;52.962;6.196;2023-07-13T12:54:40;25.70;99.90
57444;DHT22;43289;52.962;6.196;2023-07-13T12:57:08;26.00;99.90
57444;DHT22;43289;52.962;6.196;2023-07-13T12:59:39;25.90;99.90
57444;DHT22;43289;52.962;6.196;2023-07-13T13:02:28;25.70;99.90
57444;DHT22;43289;52.962;6.196;2023-07-13T13:04:56;25.70;99.90
57444;DHT22;43289;52.962;6.196;2023-07-13T13:07:23;25.50;99.90
57444;DHT22;43289;52.962;6.196;2023-07-13T13:09:49;25.30;99.90
57444;DHT22;43289;52.962;6.196;2023-07-13T13:12:15;25.30;99.90
57444;DHT22;43289;52.962;6.196;2023-07-13T13:19:45;25.30;99.90
57444;DHT22;43289;52.962;6.196;2023-07-13T13:22:11;24.00;99.90
57444;DHT22;43289;52.962;6.196;2023-07-13T13:39:41;24.00;99.90
57444;DHT22;43289;52.962;6.196;2023-07-13T13:42:09;23.90;99.90
57444;DHT22;43289;52.962;6.196;2023-07-13T13:44:35;23.60;99.90
57444;DHT22;43289;52.962;6.196;2023-07-13T13:47:01;23.50;99.90
57444;DHT22;43289;52.962;6.196;2023-07-13T14:16:36;23.90;99.90
57444;DHT22;43289;52.962;6.196;2023-07-13T14:19:02;25.80;99.90
57444;DHT22;43289;52.962;6.196;2023-07-13T14:21:29;25.70;99.90
57444;DHT22;43289;52.962;6.196;2023-07-13T14:23:54;25.50;99.90
57444;DHT22;43289;52.962;6.196;2023-07-13T14:26:25;25.60;99.90
57444;DHT22;43289;52.962;6.196;2023-07-13T14:28:56;26.10;99.90
57444;DHT22;43289;52.962;6.196;2023-07-13T14:31:26;26.50;99.90
57444;DHT22;43289;52.962;6.196;2023-07-13T14:33:54;26.80;99.90
57444;DHT22;43289;52.962;6.196;2023-07-13T14:36:41;26.90;99.90
57444;DHT22;43289;52.962;6.196;2023-07-13T14:39:18;26.60;99.90
57444;DHT22;43289;52.962;6.196;2023-07-13T14:41:45;26.60;99.90
57444;DHT22;43289;52.962;6.196;2023-07-13T14:44:16;26.60;99.90
57444;DHT22;43289;52.962;6.196;2023-07-13T14:46:43;26.50;99.90
57444;DHT22;43289;52.962;6.196;2023-07-13T14:51:44;26.60;99.90
57444;DHT22;43289;52.962;6.196;2023-07-13T14:54:09;26.90;99.90
57444;DHT22;43289;52.962;6.196;2023-07-13T14:59:01;27.20;99.90
57444;DHT22;43289;52.962;6.196;2023-07-13T15:04:17;27.00;99.90
57444;DHT22;43289;52.962;6.196;2023-07-13T15:06:55;25.10;99.90
57444;DHT22;43289;52.962;6.196;2023-07-13T15:11:49;25.20;99.90
57444;DHT22;43289;52.962;6.196;2023-07-13T15:14:15;25.00;99.90
57444;DHT22;43289;52.962;6.196;2023-07-13T15:38:43;25.00;99.90
57444;DHT22;43289;52.962;6.196;2023-07-13T15:41:19;26.00;99.90
57444;DHT22;43289;52.962;6.196;2023-07-13T15:43:46;26.80;99.90
57444;DHT22;43289;52.962;6.196;2023-07-13T15:46:12;26.60;99.90
57444;DHT22;43289;52.962;6.196;2023-07-13T16:05:47;26.10;99.90
57444;DHT22;43289;52.962;6.196;2023-07-13T16:08:25;27.10;99.90
57444;DHT22;43289;52.962;6.196;2023-07-13T16:10:52;27.10;99.90
57444;DHT22;43289;52.962;6.196;2023-07-13T16:15:46;26.70;99.90
57444;DHT22;43289;52.962;6.196;2023-07-13T16:18:13;25.00;99.90
57444;DHT22;43289;52.962;6.196;2023-07-13T16:20:43;24.20;99.90
57444;DHT22;43289;52.962;6.196;2023-07-13T16:23:11;23.60;99.90
57444;DHT22;43289;52.962;6.196;2023-07-13T16:25:39;22.90;99.90
57444;DHT22;43289;52.962;6.196;2023-07-13T16:28:06;22.90;99.90
57444;DHT22;43289;52.962;6.196;2023-07-13T16:30:32;23.30;99.90
57444;DHT22;43289;52.962;6.196;2023-07-13T16:33:03;23.40;99.90
57444;DHT22;43289;52.962;6.196;2023-07-13T16:35:39;23.50;99.90
57444;DHT22;43289;52.962;6.196;2023-07-13T16:38:17;23.60;99.90
57444;DHT22;43289;52.962;6.196;2023-07-13T16:40:43;23.50;99.90
57444;DHT22;43289;52.962;6.196;2023-07-13T16:43:12;23.20;99.90
57444;DHT22;43289;52.962;6.196;2023-07-13T16:45:39;22.90;99.90
57444;DHT22;43289;52.962;6.196;2023-07-13T16:48:16;22.80;99.90
57444;DHT22;43289;52.962;6.196;2023-07-13T16:50:43;22.80;99.90
57444;DHT22;43289;52.962;6.196;2023-07-13T16:53:18;22.60;99.90
57444;DHT22;43289;52.962;6.196;2023-07-13T16:55:44;22.50;99.90
57444;DHT22;43289;52.962;6.196;2023-07-13T16:58:11;22.20;99.90
57444;DHT22;43289;52.962;6.196;2023-07-13T17:00:37;22.10;99.90
57444;DHT22;43289;52.962;6.196;2023-07-13T17:03:05;22.20;99.90
57444;DHT22;43289;52.962;6.196;2023-07-13T17:05:35;22.30;99.90
57444;DHT22;43289;52.962;6.196;2023-07-13T17:10:40;22.10;99.90
57444;DHT22;43289;52.962;6.196;2023-07-13T17:13:10;21.90;99.90
57444;DHT22;43289;52.962;6.196;2023-07-13T17:15:36;21.80;99.90
57444;DHT22;43289;52.962;6.196;2023-07-13T17:18:02;21.60;99.90
57444;DHT22;43289;52.962;6.196;2023-07-13T17:20:33;21.70;99.90
57444;DHT22;43289;52.962;6.196;2023-07-13T17:23:16;21.70;99.90
57444;DHT22;43289;52.962;6.196;2023-07-13T17:25:43;21.60;99.90
57444;DHT22;43289;52.962;6.196;2023-07-13T17:28:09;21.50;99.90
57444;DHT22;43289;52.962;6.196;2023-07-13T17:30:37;21.50;99.90
57444;DHT22;43289;52.962;6.196;2023-07-13T17:33:04;21.30;99.90
57444;DHT22;43289;52.962;6.196;2023-07-13T17:35:34;21.30;99.90
57444;DHT22;43289;52.962;6.196;2023-07-13T17:38:02;21.20;99.90
57444;DHT22;43289;52.962;6.196;2023-07-13T17:40:29;21.10;99.90
57444;DHT22;43289;52.962;6.196;2023-07-13T17:42:55;21.10;99.90
57444;DHT22;43289;52.962;6.196;2023-07-13T17:45:27;21.00;99.90
57444;DHT22;43289;52.962;6.196;2023-07-13T17:47:54;21.00;99.90
57444;DHT22;43289;52.962;6.196;2023-07-13T17:50:31;21.00;99.90
57444;DHT22;43289;52.962;6.196;2023-07-13T17:53:12;21.10;99.90
57444;DHT22;43289;52.962;6.196;2023-07-13T17:55:38;21.00;99.90
57444;DHT22;43289;52.962;6.196;2023-07-13T17:58:04;20.90;99.90
57444;DHT22;43289;52.962;6.196;2023-07-13T18:00:35;20.90;99.90
57444;DHT22;43289;52.962;6.196;2023-07-13T18:05:44;20.80;99.90
57444;DHT22;43289;52.962;6.196;2023-07-13T18:08:23;20.80;99.90
57444;DHT22;43289;52.962;6.196;2023-07-13T18:10:50;20.80;99.90
57444;DHT22;43289;52.962;6.196;2023-07-13T18:13:17;20.80;99.90
57444;DHT22;43289;52.962;6.196;2023-07-13T18:15:44;20.80;99.90
57444;DHT22;43289;52.962;6.196;2023-07-13T18:18:12;20.80;99.90
57444;DHT22;43289;52.962;6.196;2023-07-13T18:20:39;20.70;99.90
57444;DHT22;43289;52.962;6.196;2023-07-13T18:23:21;20.50;99.90
57444;DHT22;43289;52.962;6.196;2023-07-13T18:25:47;20.40;99.90
57444;DHT22;43289;52.962;6.196;2023-07-13T18:28:15;20.30;99.90
57444;DHT22;43289;52.962;6.196;2023-07-13T18:30:43;20.20;99.90
57444;DHT22;43289;52.962;6.196;2023-07-13T18:33:31;20.10;99.90
57444;DHT22;43289;52.962;6.196;2023-07-13T18:35:58;20.00;99.90
57444;DHT22;43289;52.962;6.196;2023-07-13T18:38:25;19.90;99.90
57444;DHT22;43289;52.962;6.196;2023-07-13T18:40:53;19.80;99.90
57444;DHT22;43289;52.962;6.196;2023-07-13T18:43:20;19.80;99.90
57444;DHT22;43289;52.962;6.196;2023-07-13T18:45:55;19.70;99.90
57444;DHT22;43289;52.962;6.196;2023-07-13T18:48:23;19.70;99.90
57444;DHT22;43289;52.962;6.196;2023-07-13T18:50:50;19.60;99.90
57444;DHT22;43289;52.962;6.196;2023-07-13T18:53:17;19.50;99.90
57444;DHT22;43289;52.962;6.196;2023-07-13T18:55:43;19.50;99.90
57444;DHT22;43289;52.962;6.196;2023-07-13T18:58:13;19.40;99.90
57444;DHT22;43289;52.962;6.196;2023-07-13T19:00:40;19.40;99.90
57444;DHT22;43289;52.962;6.196;2023-07-13T19:03:19;19.40;99.90
57444;DHT22;43289;52.962;6.196;2023-07-13T19:05:48;19.30;99.90
57444;DHT22;43289;52.962;6.196;2023-07-13T19:08:21;19.20;99.90
57444;DHT22;43289;52.962;6.196;2023-07-13T19:10:52;19.10;99.90
57444;DHT22;43289;52.962;6.196;2023-07-13T19:13:25;19.10;99.90
57444;DHT22;43289;52.962;6.196;2023-07-13T19:15:51;19.00;99.90
57444;DHT22;43289;52.962;6.196;2023-07-13T19:18:19;19.00;99.90
57444;DHT22;43289;52.962;6.196;2023-07-13T19:20:47;18.90;99.90
57444;DHT22;43289;52.962;6.196;2023-07-13T19:28:42;18.70;99.90
57444;DHT22;43289;52.962;6.196;2023-07-13T19:31:30;18.70;99.90
57444;DHT22;43289;52.962;6.196;2023-07-13T19:33:59;18.60;99.90
57444;DHT22;43289;52.962;6.196;2023-07-13T19:36:26;18.50;99.90
57444;DHT22;43289;52.962;6.196;2023-07-13T19:38:52;18.40;99.90
57444;DHT22;43289;52.962;6.196;2023-07-13T19:41:22;18.40;99.90
57444;DHT22;43289;52.962;6.196;2023-07-13T19:43:50;18.30;99.90
57444;DHT22;43289;52.962;6.196;2023-07-13T19:46:32;18.30;99.90
57444;DHT22;43289;52.962;6.196;2023-07-13T19:48:58;18.20;99.90
57444;DHT22;43289;52.962;6.196;2023-07-13T19:51:25;18.10;99.90
57444;DHT22;43289;52.962;6.196;2023-07-13T19:53:56;18.10;99.90
57444;DHT22;43289;52.962;6.196;2023-07-13T19:56:23;18.00;99.90
57444;DHT22;43289;52.962;6.196;2023-07-13T19:58:49;17.90;99.90
57444;DHT22;43289;52.962;6.196;2023-07-13T20:01:17;17.80;99.90
57444;DHT22;43289;52.962;6.196;2023-07-13T20:03:43;17.70;99.90
57444;DHT22;43289;52.962;6.196;2023-07-13T20:06:29;17.70;99.90
57444;DHT22;43289;52.962;6.196;2023-07-13T20:08:59;17.60;99.90
57444;DHT22;43289;52.962;6.196;2023-07-13T20:11:25;17.40;99.90
57444;DHT22;43289;52.962;6.196;2023-07-13T20:13:51;17.40;99.90
57444;DHT22;43289;52.962;6.196;2023-07-13T20:16:17;17.40;99.90
57444;DHT22;43289;52.962;6.196;2023-07-13T20:18:44;17.30;99.90
57444;DHT22;43289;52.962;6.196;2023-07-13T20:21:12;17.20;99.90
57444;DHT22;43289;52.962;6.196;2023-07-13T20:23:38;17.20;99.90
57444;DHT22;43289;52.962;6.196;2023-07-13T20:26:04;17.20;99.90
57444;DHT22;43289;52.962;6.196;2023-07-13T20:28:32;17.20;99.90
57444;DHT22;43289;52.962;6.196;2023-07-13T20:30:59;17.10;99.90
57444;DHT22;43289;52.962;6.196;2023-07-13T20:33:27;17.10;99.90
57444;DHT22;43289;52.962;6.196;2023-07-13T20:36:02;16.90;99.90
57444;DHT22;43289;52.962;6.196;2023-07-13T20:38:28;16.80;99.90
57444;DHT22;43289;52.962;6.196;2023-07-13T20:40:53;16.70;99.90
57444;DHT22;43289;52.962;6.196;2023-07-13T20:43:20;16.60;99.90
57444;DHT22;43289;52.962;6.196;2023-07-13T20:49:26;16.50;99.90
57444;DHT22;43289;52.962;6.196;2023-07-13T20:51:56;16.40;99.90
57444;DHT22;43289;52.962;6.196;2023-07-13T20:54:23;16.40;99.90
57444;DHT22;43289;52.962;6.196;2023-07-13T20:56:49;16.40;99.90
57444;DHT22;43289;52.962;6.196;2023-07-13T23:27:09;16.40;99.90
57444;DHT22;43289;52.962;6.196;2023-07-13T23:29:35;14.50;99.90
57444;DHT22;43289;52.962;6.196;2023-07-13T23:32:00;14.30;99.90
57444;DHT22;43289;52.962;6.196;2023-07-13T23:34:26;14.30;99.90
57444;DHT22;43289;52.962;6.196;2023-07-13T23:36:53;14.30;99.90
57444;DHT22;43289;52.962;6.196;2023-07-13T23:39:18;14.20;99.90
57444;DHT22;43289;52.962;6.196;2023-07-13T23:41:45;14.20;99.90
57444;DHT22;43289;52.962;6.196;2023-07-13T23:44:12;14.20;99.90
57444;DHT22;43289;52.962;6.196;2023-07-13T23:47:07;14.10;99.90
57444;DHT22;43289;52.962;6.196;2023-07-13T23:49:33;14.10;99.90
57444;DHT22;43289;52.962;6.196;2023-07-13T23:52:05;14.10;99.90
57444;DHT22;43289;52.962;6.196;2023-07-13T23:54:33;14.10;99.90
57444;DHT22;43289;52.962;6.196;2023-07-13T23:57:00;14.10;99.90
57444;DHT22;43289;52.962;6.196;2023-07-13T23:59:26;14.00;99.90
